createdAt,value
2023-01-09T00:01:57.558Z,11.13
2023-01-09T00:04:28.785Z,9.91
2023-01-09T00:06:59.388Z,8.74
2023-01-09T00:09:31.053Z,8.17
2023-01-09T00:12:02.580Z,8.98
2023-01-09T00:14:34.020Z,9.85
2023-01-09T00:17:04.547Z,10.39
2023-01-09T00:19:36.000Z,10.80
2023-01-09T00:22:09.644Z,11.10
2023-01-09T00:24:40.750Z,11.27
2023-01-09T00:27:11.880Z,10.41
2023-01-09T00:29:45.071Z,9.11
2023-01-09T00:32:16.069Z,8.09
2023-01-09T00:34:47.258Z,7.64
2023-01-09T00:37:17.785Z,8.57
2023-01-09T00:39:49.253Z,9.55
2023-01-09T00:42:20.693Z,10.17
2023-01-09T00:44:53.862Z,10.60
2023-01-09T00:47:26.351Z,10.86
2023-01-09T00:50:00.468Z,10.77
2023-01-09T00:52:31.507Z,9.78
2023-01-09T00:55:03.779Z,8.49
2023-01-09T00:57:34.369Z,7.80
2023-01-09T01:00:05.966Z,8.60
2023-01-09T01:02:36.912Z,9.53
2023-01-09T01:05:26.825Z,10.16
2023-01-09T01:07:57.407Z,10.60
2023-01-09T01:10:28.568Z,10.79
2023-01-09T01:12:59.074Z,10.70
2023-01-09T01:15:29.968Z,9.50
2023-01-09T01:18:00.649Z,8.26
2023-01-09T01:20:31.354Z,7.64
2023-01-09T01:23:01.798Z,8.48
2023-01-09T01:25:32.759Z,9.38
2023-01-09T01:28:03.315Z,9.95
2023-01-09T01:30:34.752Z,10.21
2023-01-09T01:33:05.356Z,10.55
2023-01-09T01:35:36.347Z,10.82
2023-01-09T01:38:06.877Z,10.70
2023-01-09T01:51:07.495Z,8.40
2023-01-09T01:53:40.586Z,9.34
2023-01-09T01:56:10.105Z,9.96
2023-01-09T01:58:44.224Z,10.13
2023-01-09T02:01:15.513Z,10.54
2023-01-09T02:03:47.059Z,10.76
2023-01-09T02:06:17.752Z,10.70
2023-01-09T02:08:49.144Z,9.58
2023-01-09T02:11:21.432Z,8.51
2023-01-09T02:13:53.040Z,9.00
2023-01-09T02:16:30.580Z,9.76
2023-01-09T02:19:03.401Z,10.23
2023-01-09T02:21:41.499Z,10.51
2023-01-09T02:24:25.651Z,10.76
2023-01-09T02:27:12.764Z,10.24
2023-01-09T02:29:56.916Z,8.78
2023-01-09T02:32:34.652Z,8.02
2023-01-09T02:35:10.295Z,8.89
2023-01-09T02:37:45.504Z,9.82
2023-01-09T02:40:20.685Z,10.36
2023-01-09T02:42:52.494Z,10.74
2023-01-09T02:45:23.452Z,10.70
2023-01-09T02:47:54.083Z,9.44
2023-01-09T02:50:26.785Z,8.57
2023-01-09T02:53:17.239Z,9.26
2023-01-09T02:55:58.359Z,9.99
2023-01-09T02:58:36.271Z,8.84
2023-01-09T03:01:12.565Z,7.76
2023-01-09T03:03:49.400Z,8.43
2023-01-09T03:06:23.540Z,9.25
2023-01-09T03:08:55.895Z,9.62
2023-01-09T03:11:28.026Z,9.55
2023-01-09T03:14:00.183Z,9.57
2023-01-09T03:16:33.472Z,9.86
2023-01-09T03:19:05.733Z,9.89
2023-01-09T03:21:37.024Z,8.27
2023-01-09T03:24:08.371Z,7.27
2023-01-09T03:26:39.339Z,8.16
2023-01-09T03:29:10.636Z,8.79
2023-01-09T03:31:41.692Z,9.19
2023-01-09T03:34:12.670Z,9.44
2023-01-09T03:36:43.832Z,9.73
2023-01-09T03:39:14.670Z,10.02
2023-01-09T03:41:45.520Z,10.00
2023-01-09T03:44:16.132Z,8.86
2023-01-09T03:46:47.489Z,7.68
2023-01-09T03:49:19.452Z,7.02
2023-01-09T03:51:50.119Z,7.81
2023-01-09T03:54:21.073Z,8.78
2023-01-09T03:56:51.987Z,9.42
2023-01-09T03:59:22.688Z,9.79
2023-01-09T04:01:53.758Z,10.08
2023-01-09T04:04:24.685Z,10.28
2023-01-09T04:06:55.611Z,10.14
2023-01-09T04:09:26.442Z,8.91
2023-01-09T04:11:57.390Z,7.69
2023-01-09T04:14:28.315Z,7.22
2023-01-09T04:16:59.256Z,8.15
2023-01-09T04:19:29.982Z,9.09
2023-01-09T04:22:00.937Z,9.68
2023-01-09T04:24:32.678Z,10.08
2023-01-09T04:27:03.721Z,10.37
2023-01-09T04:29:34.453Z,10.66
2023-01-09T04:32:05.765Z,10.56
2023-01-09T04:34:36.298Z,9.41
2023-01-09T04:37:07.104Z,8.22
2023-01-09T04:39:37.864Z,7.52
2023-01-09T04:42:08.881Z,8.03
2023-01-09T04:44:39.641Z,8.69
2023-01-09T04:47:10.814Z,9.24
2023-01-09T04:49:41.813Z,9.48
2023-01-09T04:52:13.613Z,9.74
2023-01-09T04:54:44.654Z,9.83
2023-01-09T04:57:15.658Z,10.20
2023-01-09T04:59:46.742Z,10.52
2023-01-09T05:02:17.588Z,10.37
2023-01-09T05:04:48.732Z,9.05
2023-01-09T05:07:19.825Z,7.74
2023-01-09T05:09:50.624Z,7.66
2023-01-09T05:12:21.630Z,8.57
2023-01-09T05:14:52.365Z,9.24
2023-01-09T05:17:23.307Z,9.55
2023-01-09T05:19:54.065Z,9.62
2023-01-09T05:22:24.873Z,9.87
2023-01-09T05:24:55.600Z,10.42
2023-01-09T05:27:27.458Z,10.00
2023-01-09T05:29:58.504Z,8.47
2023-01-09T05:32:29.281Z,7.68
2023-01-09T05:34:59.970Z,8.45
2023-01-09T05:37:30.856Z,9.25
2023-01-09T05:40:01.556Z,9.78
2023-01-09T05:42:32.368Z,10.21
2023-01-09T05:45:03.047Z,10.50
2023-01-09T05:47:34.039Z,10.80
2023-01-09T05:50:04.832Z,11.03
2023-01-09T05:52:35.663Z,11.18
2023-01-09T05:55:07.380Z,10.37
2023-01-09T05:57:37.954Z,9.09
2023-01-09T06:00:09.565Z,8.30
2023-01-09T06:02:40.867Z,9.08
2023-01-09T06:05:12.129Z,9.92
2023-01-09T06:07:43.341Z,10.44
2023-01-09T06:10:15.366Z,10.80
2023-01-09T06:12:49.580Z,11.07
2023-01-09T06:15:21.325Z,11.03
2023-01-09T06:17:52.363Z,9.88
2023-01-09T06:20:23.201Z,8.70
2023-01-09T06:22:55.466Z,8.24
2023-01-09T06:25:26.109Z,9.18
2023-01-09T06:27:56.940Z,9.94
2023-01-09T06:30:27.716Z,10.25
2023-01-09T06:32:58.603Z,10.40
2023-01-09T06:35:29.554Z,10.59
2023-01-09T06:38:01.539Z,10.56
2023-01-09T06:40:32.351Z,10.82
2023-01-09T06:43:03.772Z,10.80
2023-01-09T06:45:34.321Z,9.70
2023-01-09T06:48:05.326Z,8.52
2023-01-09T06:50:35.996Z,8.01
2023-01-09T06:53:06.826Z,8.89
2023-01-09T06:55:37.657Z,9.59
2023-01-09T06:58:08.599Z,9.95
2023-01-09T07:00:39.476Z,10.33
2023-01-09T07:03:11.680Z,10.43
2023-01-09T07:05:43.664Z,10.66
2023-01-09T07:08:15.576Z,10.83
2023-01-09T07:10:46.886Z,10.76
2023-01-09T07:13:17.725Z,9.56
2023-01-09T07:15:50.308Z,8.36
2023-01-09T07:18:21.451Z,8.26
2023-01-09T07:20:53.192Z,9.16
2023-01-09T07:23:24.236Z,9.78
2023-01-09T07:25:54.860Z,10.26
2023-01-09T07:28:25.533Z,10.50
2023-01-09T07:30:56.348Z,10.78
2023-01-09T07:33:27.272Z,10.68
2023-01-09T07:35:57.892Z,10.84
2023-01-09T07:38:28.938Z,11.03
2023-01-09T07:40:59.785Z,11.21
2023-01-09T07:43:30.731Z,11.22
2023-01-09T07:46:01.607Z,10.16
2023-01-09T07:48:32.975Z,9.12
2023-01-09T07:51:03.723Z,9.49
2023-01-09T07:53:35.379Z,10.47
2023-01-09T07:56:06.595Z,11.10
2023-01-09T07:58:38.571Z,11.56
2023-01-09T08:01:11.569Z,11.60
2023-01-09T08:03:42.966Z,10.54
2023-01-09T08:06:13.762Z,9.53
2023-01-09T08:08:45.030Z,8.79
2023-01-09T08:11:15.835Z,8.55
2023-01-09T08:13:46.984Z,9.63
2023-01-09T08:16:18.151Z,10.73
2023-01-09T08:18:49.202Z,11.48
2023-01-09T08:21:19.933Z,11.97
2023-01-09T08:23:50.803Z,11.97
2023-01-09T08:26:21.873Z,10.93
2023-01-09T08:28:52.557Z,9.90
2023-01-09T08:31:23.499Z,9.19
2023-01-09T08:33:54.601Z,8.96
2023-01-09T08:36:25.416Z,10.06
2023-01-09T08:38:57.078Z,11.16
2023-01-09T08:41:44.911Z,11.91
2023-01-09T08:44:33.533Z,12.11
2023-01-09T08:47:07.158Z,12.07
2023-01-09T08:49:38.997Z,11.24
2023-01-09T08:52:10.419Z,10.30
2023-01-09T08:54:41.620Z,9.85
2023-01-09T08:57:12.664Z,10.76
2023-01-09T08:59:43.290Z,11.68
2023-01-09T09:02:14.227Z,11.95
2023-01-09T09:04:44.904Z,10.62
2023-01-09T09:07:15.812Z,9.89
2023-01-09T09:09:46.533Z,10.78
2023-01-09T09:12:20.346Z,11.68
2023-01-09T09:15:09.092Z,12.19
2023-01-09T09:17:40.474Z,11.62
2023-01-09T09:20:13.326Z,10.40
2023-01-09T09:22:44.352Z,9.73
2023-01-09T09:25:15.309Z,10.65
2023-01-09T09:27:46.230Z,11.66
2023-01-09T09:30:18.634Z,12.14
2023-01-09T09:32:50.292Z,12.37
2023-01-09T09:35:22.703Z,12.62
2023-01-09T09:37:56.875Z,12.79
2023-01-09T09:40:36.955Z,11.81
2023-01-09T09:43:32.516Z,10.73
2023-01-09T09:46:06.672Z,10.87
2023-01-09T09:48:39.404Z,11.78
2023-01-09T09:51:08.978Z,12.42
2023-01-09T09:53:41.327Z,12.90
2023-01-09T09:56:13.964Z,13.25
2023-01-09T09:58:46.879Z,12.37
2023-01-09T10:01:20.349Z,11.30
2023-01-09T10:03:52.941Z,10.91
2023-01-09T10:06:28.474Z,11.88
2023-01-09T10:09:03.158Z,12.86
2023-01-09T10:11:36.648Z,13.24
2023-01-09T10:14:22.803Z,12.40
2023-01-09T10:17:00.166Z,11.36
2023-01-09T10:19:41.621Z,10.96
2023-01-09T10:22:18.920Z,11.87
2023-01-09T10:24:55.894Z,12.78
2023-01-09T10:27:36.293Z,13.37
2023-01-09T10:33:15.433Z,12.30
2023-01-09T10:35:52.005Z,11.36
2023-01-09T10:38:25.158Z,11.11
2023-01-09T10:41:01.740Z,12.09
2023-01-09T10:43:36.089Z,12.88
2023-01-09T10:46:08.898Z,13.47
2023-01-09T10:48:41.963Z,13.73
2023-01-09T10:51:17.324Z,12.83
2023-01-09T10:53:50.303Z,11.87
2023-01-09T10:56:24.189Z,11.48
2023-01-09T10:58:56.247Z,12.46
2023-01-09T11:01:28.535Z,13.49
2023-01-09T11:04:01.447Z,14.08
2023-01-09T11:06:37.675Z,14.36
2023-01-09T11:09:08.293Z,13.40
2023-01-09T11:11:41.251Z,12.47
2023-01-09T11:14:17.777Z,11.81
2023-01-09T11:16:55.809Z,11.68
2023-01-09T11:19:27.044Z,12.86
2023-01-09T11:22:09.840Z,13.95
2023-01-09T11:27:27.377Z,13.89
2023-01-09T11:30:15.862Z,13.04
2023-01-09T11:32:47.845Z,12.28
2023-01-09T11:35:21.001Z,12.23
2023-01-09T11:37:59.529Z,13.46
2023-01-09T11:40:31.270Z,14.13
2023-01-09T11:43:07.252Z,13.53
2023-01-09T11:45:50.242Z,12.94
2023-01-09T11:48:32.131Z,12.50
2023-01-09T11:51:05.243Z,12.26
2023-01-09T11:53:46.788Z,12.69
2023-01-09T11:56:18.233Z,14.21
2023-01-09T11:58:49.447Z,14.96
2023-01-09T12:01:26.568Z,14.47
2023-01-09T12:04:05.281Z,13.72
2023-01-09T12:06:40.832Z,13.22
2023-01-09T12:09:16.276Z,12.72
2023-01-09T12:11:52.186Z,12.54
2023-01-09T12:14:42.899Z,13.67
2023-01-09T12:17:21.790Z,14.50
2023-01-09T12:20:07.273Z,13.78
2023-01-09T12:22:41.029Z,12.71
2023-01-09T12:25:19.771Z,12.60
2023-01-09T12:27:56.620Z,13.71
2023-01-09T12:30:49.950Z,14.56
2023-01-09T12:33:26.889Z,14.86
2023-01-09T12:36:02.919Z,13.88
2023-01-09T12:38:42.366Z,12.90
2023-01-09T12:41:44.746Z,12.48
2023-01-09T12:44:34.694Z,13.67
2023-01-09T12:47:13.236Z,14.64
2023-01-09T12:49:46.665Z,14.01
2023-01-09T12:52:20.744Z,12.93
2023-01-09T12:54:53.965Z,12.44
2023-01-09T12:57:28.566Z,13.33
2023-01-09T13:00:01.727Z,14.25
2023-01-09T13:02:32.707Z,14.82
2023-01-09T13:05:08.641Z,14.94
2023-01-09T13:07:42.964Z,13.96
2023-01-09T13:10:19.634Z,12.91
2023-01-09T13:12:51.794Z,12.52
2023-01-09T13:15:26.564Z,13.42
2023-01-09T13:18:00.224Z,14.25
2023-01-09T13:20:35.124Z,14.84
2023-01-09T13:23:06.750Z,14.63
2023-01-09T13:25:45.252Z,13.53
2023-01-09T13:28:20.079Z,12.53
2023-01-09T13:31:03.533Z,12.20
2023-01-09T13:33:37.006Z,13.30
2023-01-09T13:36:08.305Z,14.23
2023-01-09T13:38:39.686Z,14.86
2023-01-09T13:41:32.280Z,14.77
2023-01-09T13:44:05.118Z,13.47
2023-01-09T13:46:41.182Z,12.43
2023-01-09T13:49:25.278Z,12.33
2023-01-09T13:52:00.350Z,13.47
2023-01-09T13:54:50.608Z,14.33
2023-01-09T13:57:29.776Z,14.71
2023-01-09T14:00:21.390Z,13.68
2023-01-09T14:02:59.295Z,12.77
2023-01-09T14:05:47.640Z,13.53
2023-01-09T14:08:20.417Z,14.39
2023-01-09T14:10:52.001Z,14.85
2023-01-09T14:13:23.923Z,14.88
2023-01-09T14:16:02.802Z,13.90
2023-01-09T14:18:34.320Z,12.78
2023-01-09T14:23:52.139Z,13.54
2023-01-09T14:26:25.865Z,14.40
2023-01-09T14:29:16.779Z,14.87
2023-01-09T14:31:47.894Z,14.82
2023-01-09T14:34:34.869Z,13.82
2023-01-09T14:37:05.882Z,12.74
2023-01-09T14:39:37.433Z,12.33
2023-01-09T14:42:16.049Z,13.26
2023-01-09T14:44:50.296Z,14.25
2023-01-09T14:47:24.157Z,14.87
2023-01-09T14:49:56.856Z,14.90
2023-01-09T14:52:29.622Z,13.79
2023-01-09T14:55:02.603Z,13.06
2023-01-09T14:57:34.712Z,13.61
2023-01-09T15:00:08.089Z,14.27
2023-01-09T15:02:40.471Z,14.70
2023-01-09T15:05:13.019Z,14.40
2023-01-09T15:07:45.477Z,13.16
2023-01-09T15:10:18.577Z,12.44
2023-01-09T15:12:50.490Z,13.15
2023-01-09T15:15:22.416Z,13.97
2023-01-09T15:17:55.301Z,14.57
2023-01-09T15:20:27.702Z,14.54
2023-01-09T15:23:00.881Z,13.41
2023-01-09T15:25:38.797Z,12.84
2023-01-09T15:28:25.216Z,13.78
2023-01-09T15:30:58.380Z,14.59
2023-01-09T15:33:29.075Z,14.55
2023-01-09T15:36:02.828Z,13.34
2023-01-09T15:38:36.202Z,12.78
2023-01-09T15:41:05.361Z,14.06
2023-01-09T15:43:36.941Z,14.28
2023-01-09T15:46:07.724Z,13.10
2023-01-09T15:48:39.440Z,12.88
2023-01-09T15:51:12.300Z,14.20
2023-01-09T15:53:43.682Z,13.88
2023-01-09T15:56:19.720Z,12.73
2023-01-09T15:58:50.894Z,13.56
2023-01-09T16:01:26.111Z,15.12
2023-01-09T16:03:58.804Z,13.79
2023-01-09T16:06:30.700Z,13.18
2023-01-09T16:09:01.738Z,14.33
2023-01-09T16:11:33.457Z,14.81
2023-01-09T16:14:12.078Z,14.30
2023-01-09T16:16:43.213Z,14.87
2023-01-09T16:19:30.083Z,15.60
2023-01-09T16:22:01.201Z,15.05
2023-01-09T16:24:36.505Z,15.25
2023-01-09T16:27:13.922Z,15.02
2023-01-09T16:29:50.053Z,15.00
2023-01-09T16:32:21.900Z,14.93
2023-01-09T16:34:54.809Z,14.99
2023-01-09T16:37:26.443Z,15.02
2023-01-09T16:40:17.245Z,15.07
2023-01-09T16:43:04.498Z,15.45
2023-01-09T16:45:36.209Z,15.44
2023-01-09T16:48:12.609Z,15.31
2023-01-09T16:50:44.209Z,15.33
2023-01-09T16:53:16.994Z,15.16
2023-01-09T16:55:48.049Z,15.35
2023-01-09T16:58:21.288Z,15.52
2023-01-09T17:00:50.312Z,15.42
2023-01-09T17:03:21.561Z,15.32
2023-01-09T17:05:53.107Z,15.72
2023-01-09T17:08:24.686Z,14.35
2023-01-09T17:10:56.435Z,13.55
2023-01-09T17:13:27.271Z,13.51
2023-01-09T17:15:58.295Z,13.90
2023-01-09T17:18:29.770Z,14.16
2023-01-09T17:21:01.062Z,14.51
2023-01-09T17:23:31.735Z,14.78
2023-01-09T17:26:20.314Z,14.88
2023-01-09T17:28:52.142Z,14.89
2023-01-09T17:31:23.126Z,14.88
2023-01-09T17:33:54.139Z,14.65
2023-01-09T17:36:27.874Z,14.79
2023-01-09T17:38:59.411Z,15.00
2023-01-09T17:41:32.279Z,15.39
2023-01-09T17:44:04.549Z,14.32
2023-01-09T17:46:37.125Z,12.97
2023-01-09T17:49:09.672Z,13.38
2023-01-09T17:51:40.806Z,14.06
2023-01-09T17:54:11.859Z,14.40
2023-01-09T17:56:43.939Z,14.95
2023-01-09T17:59:15.689Z,15.32
2023-01-09T18:01:47.141Z,14.27
2023-01-09T18:04:18.220Z,13.02
2023-01-09T18:06:50.055Z,13.60
2023-01-09T18:09:24.043Z,14.34
2023-01-09T18:11:55.771Z,14.69
2023-01-09T18:14:27.001Z,14.81
2023-01-09T18:17:00.696Z,14.72
2023-01-09T18:19:31.921Z,14.95
2023-01-09T18:22:04.300Z,15.33
2023-01-09T18:24:35.418Z,14.58
2023-01-09T18:27:06.448Z,13.63
2023-01-09T18:29:38.129Z,14.10
2023-01-09T18:32:09.912Z,14.34
2023-01-09T18:34:41.387Z,14.49
2023-01-09T18:37:12.385Z,14.61
2023-01-09T18:39:43.284Z,14.80
2023-01-09T18:42:14.577Z,15.03
2023-01-09T18:44:45.368Z,15.27
2023-01-09T18:47:16.211Z,15.45
2023-01-09T18:49:46.946Z,14.76
2023-01-09T18:52:17.911Z,13.58
2023-01-09T18:54:49.535Z,12.94
2023-01-09T18:57:20.581Z,13.70
2023-01-09T18:59:51.273Z,14.59
2023-01-09T19:02:23.587Z,15.04
2023-01-09T19:04:54.383Z,15.31
2023-01-09T19:07:25.547Z,14.87
2023-01-09T19:09:56.379Z,13.66
2023-01-09T19:12:28.039Z,12.93
2023-01-09T19:14:58.996Z,13.61
2023-01-09T19:17:30.016Z,14.43
2023-01-09T19:20:00.736Z,14.87
2023-01-09T19:22:32.104Z,15.31
2023-01-09T19:25:02.841Z,14.53
2023-01-09T19:27:33.820Z,13.15
2023-01-09T19:30:05.035Z,13.59
2023-01-09T19:32:35.714Z,14.25
2023-01-09T19:35:09.503Z,14.69
2023-01-09T19:37:40.605Z,13.43
2023-01-09T19:40:12.841Z,12.68
2023-01-09T19:42:44.016Z,13.43
2023-01-09T19:45:14.676Z,14.27
2023-01-09T19:47:45.778Z,14.46
2023-01-09T19:50:17.887Z,14.72
2023-01-09T19:52:49.092Z,13.72
2023-01-09T19:55:19.787Z,12.73
2023-01-09T19:57:50.544Z,13.09
2023-01-09T20:00:21.807Z,13.68
2023-01-09T20:02:52.640Z,14.08
2023-01-09T20:05:23.677Z,14.45
2023-01-09T20:07:56.283Z,14.77
2023-01-09T20:10:27.209Z,14.67
2023-01-09T20:12:58.124Z,13.25
2023-01-09T20:15:29.020Z,12.55
2023-01-09T20:18:01.665Z,13.14
2023-01-09T20:20:32.798Z,13.77
2023-01-09T20:23:03.950Z,14.25
2023-01-09T20:25:35.688Z,14.66
2023-01-09T20:28:06.936Z,14.35
2023-01-09T20:30:41.265Z,13.21
2023-01-09T20:33:12.948Z,12.64
2023-01-09T20:35:43.806Z,13.44
2023-01-09T20:38:15.298Z,13.97
2023-01-09T20:40:46.242Z,14.24
2023-01-09T20:43:17.582Z,14.49
2023-01-09T20:45:49.014Z,13.46
2023-01-09T20:48:20.170Z,12.49
2023-01-09T20:50:51.013Z,13.13
2023-01-09T20:53:21.955Z,13.69
2023-01-09T20:55:52.606Z,13.92
2023-01-09T20:58:23.938Z,14.20
2023-01-09T21:00:54.791Z,14.48
2023-01-09T21:03:26.001Z,14.71
2023-01-09T21:05:56.807Z,14.65
2023-01-09T21:08:27.477Z,13.72
2023-01-09T21:10:58.484Z,12.58
2023-01-09T21:13:29.599Z,12.94
2023-01-09T21:16:03.062Z,13.42
2023-01-09T21:18:33.841Z,13.93
2023-01-09T21:21:05.558Z,14.24
2023-01-09T21:23:37.106Z,14.46
2023-01-09T21:26:11.369Z,14.50
2023-01-09T21:28:48.104Z,13.34
2023-01-09T21:31:20.771Z,12.39
2023-01-09T21:33:52.002Z,12.94
2023-01-09T21:36:22.761Z,13.52
2023-01-09T21:38:54.415Z,13.87
2023-01-09T21:41:42.890Z,14.18
2023-01-09T21:44:32.051Z,14.38
2023-01-09T21:47:04.285Z,14.47
2023-01-09T21:49:36.264Z,14.62
2023-01-09T21:52:07.164Z,14.50
2023-01-09T21:54:38.323Z,13.45
2023-01-09T21:57:09.559Z,12.43
2023-01-09T21:59:40.676Z,11.91
2023-01-09T22:02:13.316Z,12.71
2023-01-09T22:04:48.645Z,13.56
2023-01-09T22:07:19.609Z,14.03
2023-01-09T22:09:50.385Z,14.07
2023-01-09T22:12:21.229Z,14.23
2023-01-09T22:14:51.917Z,14.22
2023-01-09T22:17:22.742Z,14.29
2023-01-09T22:19:53.434Z,14.41
2023-01-09T22:22:24.372Z,14.60
2023-01-09T22:24:55.304Z,14.79
2023-01-09T22:27:25.945Z,14.65
2023-01-09T22:29:56.771Z,13.51
2023-01-09T22:32:27.497Z,12.43
2023-01-09T22:34:58.255Z,11.96
2023-01-09T22:37:29.581Z,12.79
2023-01-09T22:40:00.313Z,13.60
2023-01-09T22:42:31.087Z,14.14
2023-01-09T22:45:02.097Z,14.45
2023-01-09T22:47:32.870Z,14.61
2023-01-09T22:50:04.180Z,14.77
2023-01-09T22:52:34.758Z,14.24
2023-01-09T22:55:06.194Z,12.81
2023-01-09T22:57:36.960Z,12.47
2023-01-09T23:00:09.594Z,13.14
2023-01-09T23:02:40.803Z,13.61
2023-01-09T23:05:12.264Z,13.89
2023-01-09T23:07:42.987Z,14.12
2023-01-09T23:10:14.379Z,14.27
2023-01-09T23:12:48.555Z,14.42
2023-01-09T23:15:20.142Z,14.57
2023-01-09T23:17:50.703Z,14.60
2023-01-09T23:20:21.593Z,14.59
2023-01-09T23:22:52.300Z,14.60
2023-01-09T23:25:23.241Z,14.40
2023-01-09T23:27:53.977Z,13.08
2023-01-09T23:30:24.820Z,12.34
2023-01-09T23:32:55.704Z,12.90
2023-01-09T23:35:26.461Z,13.47
2023-01-09T23:37:57.133Z,13.78
2023-01-09T23:40:28.048Z,14.00
2023-01-09T23:43:11.026Z,14.09
2023-01-09T23:45:43.355Z,14.21
2023-01-09T23:48:15.244Z,14.22
2023-01-09T23:50:49.623Z,14.19
2023-01-09T23:53:21.422Z,14.18
2023-01-09T23:55:54.889Z,14.29
2023-01-09T23:58:25.567Z,14.36
